West Olive, Michigan
Current Conditions -  °F | °C
As of 8:53 PM on Sunday 23 Nov 2014 (Local Time) from KBIV Reporting Station
Light Rain Light Rain  
Wind Chill: 52°   Ceiling: 3700
Heat Index: 52°   Visibility: 7mi
Dew Point: 50°   Wind: 14mph
Humidity: 93%   Direction: 110°ESE
Pressure: 29.35"   Gusts: NA
Location:  42.92°N, 86.15°W
Report Text: KBIV 240153Z AUTO 11012KT 7SM -RA FEW005 OVC037 11/10 A2935 RMK AO2 PRESFR SLP919 P0011 T01110100
Loading
Personal Weather Stations






























Interactive Weather Map New forecast layout! Learn more

10-Day Weather Forecast

Advertisements
Track Severe Weather on mobile